createdAt,value
2022-09-22T00:01:14.128Z,6.60
2022-09-22T00:03:54.498Z,6.50
2022-09-22T00:06:30.853Z,6.30
2022-09-22T00:09:00.780Z,6.40
2022-09-22T00:11:41.190Z,6.40
2022-09-22T00:14:11.942Z,6.40
2022-09-22T00:16:50.335Z,6.40
2022-09-22T00:19:20.469Z,6.40
2022-09-22T00:24:15.942Z,6.40
2022-09-22T00:29:11.096Z,6.40
2022-09-22T00:31:40.469Z,6.40
2022-09-22T00:34:08.651Z,6.40
2022-09-22T00:41:40.624Z,6.10
2022-09-22T00:44:26.266Z,6.30
2022-09-22T00:47:06.626Z,6.10
2022-09-22T00:49:48.650Z,6.20
2022-09-22T00:52:20.300Z,6.20
2022-09-22T00:54:48.611Z,6.10
2022-09-22T00:57:20.400Z,6.10
2022-09-22T00:59:49.826Z,6.10
2022-09-22T01:04:44.519Z,6.10
2022-09-22T01:07:13.120Z,6.10
2022-09-22T01:17:23.765Z,6.00
2022-09-22T01:20:05.836Z,6.00
2022-09-22T01:23:00.039Z,6.00
2022-09-22T01:26:05.186Z,6.00
2022-09-22T01:29:04.214Z,5.80
2022-09-22T01:31:39.380Z,5.60
2022-09-22T01:34:15.974Z,5.60
2022-09-22T01:37:23.819Z,5.50
2022-09-22T01:40:15.376Z,5.50
2022-09-22T01:42:45.565Z,5.60
2022-09-22T01:45:17.929Z,5.60
2022-09-22T01:47:58.928Z,5.60
2022-09-22T01:50:30.563Z,5.60
2022-09-22T01:53:03.145Z,5.70
2022-09-22T01:55:38.977Z,5.70
2022-09-22T01:58:12.773Z,5.70
2022-09-22T02:00:43.452Z,5.70
2022-09-22T02:03:31.820Z,5.60
2022-09-22T02:06:08.806Z,5.60
2022-09-22T02:08:44.964Z,5.40
2022-09-22T02:11:16.396Z,5.70
2022-09-22T02:13:47.408Z,5.50
2022-09-22T02:18:49.195Z,5.30
2022-09-22T02:21:17.259Z,5.10
2022-09-22T02:23:46.398Z,5.30
2022-09-22T02:26:18.199Z,5.40
2022-09-22T02:31:21.150Z,5.50
2022-09-22T02:33:49.870Z,5.50
2022-09-22T02:36:37.696Z,5.40
2022-09-22T02:39:15.755Z,5.40
2022-09-22T02:44:20.003Z,5.40
2022-09-22T02:46:54.906Z,5.40
2022-09-22T02:49:23.184Z,5.40
2022-09-22T02:51:50.541Z,5.30
2022-09-22T02:54:17.864Z,5.30
2022-09-22T03:45:59.913Z,5.20
2022-09-22T03:48:29.186Z,5.20
2022-09-22T03:55:51.973Z,5.20
2022-09-22T04:05:49.920Z,4.80
2022-09-22T04:10:47.210Z,5.00
2022-09-22T04:28:05.559Z,4.90
2022-09-22T04:30:33.831Z,4.90
2022-09-22T04:37:56.975Z,4.90
2022-09-22T04:40:24.805Z,4.80
2022-09-22T04:47:51.259Z,4.80
2022-09-22T04:50:19.861Z,4.80
2022-09-22T04:52:48.289Z,4.80
2022-09-22T04:57:46.979Z,4.70
2022-09-22T06:36:23.174Z,6.00
2022-09-22T06:38:50.807Z,6.00
2022-09-22T07:01:24.128Z,6.60
2022-09-22T07:08:48.777Z,6.90
2022-09-22T07:11:23.618Z,7.10
2022-09-22T07:13:53.469Z,7.10
2022-09-22T07:16:23.119Z,7.30
2022-09-22T07:18:55.260Z,7.50
2022-09-22T07:21:27.518Z,7.60
2022-09-22T07:23:55.700Z,7.70
2022-09-22T07:26:32.585Z,7.80
2022-09-22T07:29:06.175Z,7.90
2022-09-22T07:36:31.089Z,8.20
2022-09-22T07:39:03.795Z,8.30
2022-09-22T07:41:32.060Z,8.40
2022-09-22T07:44:23.082Z,8.60
2022-09-22T07:54:13.588Z,8.90
2022-09-22T07:56:42.940Z,9.20
2022-09-22T07:59:12.136Z,9.20
2022-09-22T08:01:44.613Z,9.40
2022-09-22T08:04:15.642Z,9.40
2022-09-22T08:06:50.028Z,9.50
2022-09-22T08:09:18.437Z,9.40
2022-09-22T08:11:48.618Z,9.60
2022-09-22T08:14:17.427Z,9.90
2022-09-22T08:16:45.941Z,10.00
2022-09-22T08:19:14.639Z,10.10
2022-09-22T08:21:48.912Z,10.20
2022-09-22T08:24:21.517Z,10.30
2022-09-22T08:26:50.542Z,10.40
2022-09-22T08:36:47.332Z,10.90
2022-09-22T08:41:59.940Z,11.20
2022-09-22T08:44:31.074Z,11.30
2022-09-22T08:47:01.679Z,11.30
2022-09-22T08:49:50.098Z,11.40
2022-09-22T08:52:38.988Z,11.70
2022-09-22T08:55:11.033Z,11.70
2022-09-22T08:57:57.179Z,11.80
2022-09-22T09:00:26.435Z,11.80
2022-09-22T09:05:40.924Z,12.10
2022-09-22T09:08:20.432Z,12.20
2022-09-22T09:11:08.032Z,12.30
2022-09-22T09:26:29.672Z,12.80
2022-09-22T09:29:04.146Z,12.90
2022-09-22T09:31:42.288Z,12.90
2022-09-22T09:34:18.046Z,13.10
2022-09-22T09:36:49.417Z,13.20
2022-09-22T09:41:48.494Z,13.40
2022-09-22T09:44:21.019Z,13.50
2022-09-22T09:47:22.944Z,13.50
2022-09-22T09:49:52.738Z,13.40
2022-09-22T09:57:19.761Z,13.70
2022-09-22T10:00:07.210Z,13.50
2022-09-22T10:02:37.710Z,13.50
2022-09-22T10:05:16.551Z,13.50
2022-09-22T10:07:48.730Z,13.60
2022-09-22T10:10:34.418Z,14.00
2022-09-22T10:13:04.137Z,13.90
2022-09-22T10:15:33.905Z,14.10
2022-09-22T10:20:33.982Z,14.20
2022-09-22T10:23:23.148Z,14.40
2022-09-22T10:25:53.203Z,14.40
2022-09-22T10:28:21.707Z,14.50
2022-09-22T10:31:00.261Z,14.50
2022-09-22T10:36:09.280Z,14.70
2022-09-22T10:38:41.619Z,14.70
2022-09-22T10:41:17.763Z,15.00
2022-09-22T10:43:46.667Z,14.80
2022-09-22T10:46:38.073Z,15.10
2022-09-22T10:49:28.546Z,15.10
2022-09-22T10:52:26.086Z,15.50
2022-09-22T10:55:11.466Z,15.50
2022-09-22T10:57:50.318Z,15.20
2022-09-22T11:00:18.383Z,15.10
2022-09-22T11:03:09.947Z,14.80
2022-09-22T11:06:16.723Z,15.20
2022-09-22T11:12:14.170Z,14.80
2022-09-22T11:15:06.353Z,15.30
2022-09-22T11:17:45.495Z,15.10
2022-09-22T11:20:27.440Z,15.10
2022-09-22T11:23:22.046Z,15.50
2022-09-22T11:26:10.211Z,15.20
2022-09-22T11:29:04.700Z,15.20
2022-09-22T11:31:57.031Z,15.20
2022-09-22T11:34:57.558Z,15.20
2022-09-22T11:40:00.486Z,15.00
2022-09-22T11:43:02.232Z,15.10
2022-09-22T11:45:54.391Z,15.30
2022-09-22T11:48:55.060Z,15.40
2022-09-22T11:51:42.589Z,15.50
2022-09-22T11:54:45.449Z,15.40
2022-09-22T11:57:17.870Z,15.30
2022-09-22T11:59:53.236Z,15.30
2022-09-22T12:02:41.279Z,15.40
2022-09-22T12:05:27.146Z,15.60
2022-09-22T12:07:59.699Z,15.60
2022-09-22T12:10:35.575Z,15.50
2022-09-22T12:13:05.248Z,15.70
2022-09-22T12:15:39.659Z,15.60
2022-09-22T12:18:23.429Z,15.70
2022-09-22T12:25:57.065Z,16.20
2022-09-22T12:28:26.518Z,15.70
2022-09-22T12:30:56.509Z,15.80
2022-09-22T12:33:23.594Z,15.80
2022-09-22T12:35:55.822Z,16.20
2022-09-22T12:38:23.906Z,16.10
2022-09-22T12:40:53.917Z,16.20
2022-09-22T12:43:23.682Z,16.20
2022-09-22T12:45:52.565Z,16.30
2022-09-22T12:48:32.074Z,16.40
2022-09-22T12:51:30.842Z,16.50
2022-09-22T12:54:22.306Z,16.40
2022-09-22T12:57:02.319Z,16.40
2022-09-22T12:59:38.295Z,16.40
2022-09-22T13:02:15.988Z,16.80
2022-09-22T13:05:03.665Z,16.50
2022-09-22T13:07:40.968Z,16.50
2022-09-22T13:10:26.482Z,16.30
2022-09-22T13:13:02.443Z,16.40
2022-09-22T13:15:45.791Z,16.30
2022-09-22T13:18:45.419Z,16.40
2022-09-22T13:23:51.597Z,16.20
2022-09-22T13:26:21.116Z,16.00
2022-09-22T13:29:13.840Z,16.20
2022-09-22T13:31:51.116Z,16.20
2022-09-22T13:34:29.047Z,16.50
2022-09-22T13:37:09.606Z,16.10
2022-09-22T13:39:44.781Z,16.20
2022-09-22T13:44:44.441Z,16.00
2022-09-22T13:47:24.415Z,15.50
2022-09-22T13:49:56.421Z,15.50
2022-09-22T13:52:27.997Z,15.60
2022-09-22T13:55:00.836Z,15.50
2022-09-22T13:57:31.503Z,15.60
2022-09-22T14:00:03.935Z,15.80
2022-09-22T14:05:07.951Z,15.60
2022-09-22T14:07:49.544Z,16.00
2022-09-22T14:10:27.999Z,16.20
2022-09-22T14:15:37.018Z,16.20
2022-09-22T14:18:22.831Z,16.30
2022-09-22T14:23:30.208Z,16.30
2022-09-22T14:25:59.658Z,16.20
2022-09-22T14:28:29.978Z,16.10
2022-09-22T14:33:33.306Z,15.50
2022-09-22T14:36:04.826Z,15.60
2022-09-22T14:38:42.994Z,15.50
2022-09-22T14:41:23.847Z,15.10
2022-09-22T14:46:28.614Z,15.40
2022-09-22T14:51:25.947Z,14.90
2022-09-22T14:54:01.615Z,15.20
2022-09-22T14:56:32.460Z,15.00
2022-09-22T14:59:23.329Z,15.10
2022-09-22T15:02:09.408Z,15.20
2022-09-22T15:04:42.118Z,15.30
2022-09-22T15:07:46.484Z,15.30
2022-09-22T15:10:25.623Z,15.30
2022-09-22T15:12:53.235Z,15.60
2022-09-22T15:15:31.333Z,15.60
2022-09-22T15:18:19.421Z,15.70
2022-09-22T15:20:58.843Z,15.50
2022-09-22T15:23:44.858Z,15.80
2022-09-22T15:26:24.940Z,16.10
2022-09-22T15:28:54.484Z,15.90
2022-09-22T15:34:02.797Z,15.90
2022-09-22T15:36:34.619Z,15.90
2022-09-22T15:39:20.681Z,15.60
2022-09-22T15:46:48.616Z,15.90
2022-09-22T15:49:18.139Z,15.90
2022-09-22T15:54:21.468Z,15.60
2022-09-22T15:56:51.936Z,15.90
2022-09-22T15:59:22.384Z,15.90
2022-09-22T16:06:52.054Z,15.80
2022-09-22T16:21:42.722Z,15.40
2022-09-22T16:24:10.715Z,15.40
2022-09-22T16:26:39.578Z,15.30
2022-09-22T16:29:07.669Z,15.30
2022-09-22T16:34:03.596Z,15.20
2022-09-22T16:36:35.191Z,15.10
2022-09-22T16:39:03.138Z,15.10
2022-09-22T16:41:32.983Z,15.00
2022-09-22T16:44:00.851Z,14.90
2022-09-22T16:46:32.242Z,14.90
2022-09-22T16:49:05.968Z,14.80
2022-09-22T16:51:38.184Z,14.70
2022-09-22T16:54:07.131Z,14.50
2022-09-22T16:56:36.261Z,14.60
2022-09-22T17:01:33.894Z,14.40
2022-09-22T17:08:57.518Z,14.10
2022-09-22T17:11:30.104Z,14.20
2022-09-22T17:14:03.019Z,13.90
2022-09-22T17:16:44.311Z,13.60
2022-09-22T17:19:18.388Z,13.70
2022-09-22T17:21:47.759Z,13.50
2022-09-22T17:24:15.777Z,13.50
2022-09-22T17:26:48.093Z,13.40
2022-09-22T17:29:24.997Z,13.30
2022-09-22T17:31:57.418Z,13.20
2022-09-22T17:39:24.067Z,12.90
2022-09-22T17:44:21.337Z,12.80
2022-09-22T17:47:11.319Z,12.70
2022-09-22T17:49:57.741Z,12.70
2022-09-22T17:52:40.269Z,12.60
2022-09-22T17:55:20.338Z,12.50
2022-09-22T18:00:21.207Z,12.30
2022-09-22T18:02:49.998Z,12.20
2022-09-22T18:05:19.746Z,12.10
2022-09-22T18:10:17.432Z,11.70
2022-09-22T18:15:13.466Z,11.60
2022-09-22T18:17:42.126Z,11.50
2022-09-22T18:20:14.764Z,11.70
2022-09-22T18:25:10.452Z,11.10
2022-09-22T18:42:24.574Z,10.80
2022-09-22T18:44:52.259Z,10.70
2022-09-22T18:47:21.002Z,10.90
2022-09-22T19:02:12.155Z,10.50
2022-09-22T19:07:25.199Z,10.40
2022-09-22T19:17:27.137Z,10.30
2022-09-22T19:29:47.815Z,10.30
2022-09-22T19:34:41.751Z,10.30
2022-09-22T19:37:08.520Z,10.20
2022-09-22T19:39:35.334Z,10.10
2022-09-22T19:51:53.579Z,9.40
2022-09-22T19:56:50.222Z,9.50
2022-09-22T19:59:19.661Z,9.70
2022-09-22T20:01:47.971Z,9.50
2022-09-22T20:04:18.003Z,9.70
2022-09-22T20:06:48.889Z,9.50
2022-09-22T20:09:16.387Z,9.30
2022-09-22T20:11:45.903Z,9.30
2022-09-22T20:14:22.633Z,9.20
2022-09-22T20:16:53.779Z,9.00
2022-09-22T20:19:25.600Z,9.70
2022-09-22T20:24:23.313Z,9.00
2022-09-22T20:29:17.933Z,9.50
2022-09-22T20:31:44.820Z,8.70
2022-09-22T20:34:15.335Z,9.00
2022-09-22T20:39:14.402Z,8.70
2022-09-22T20:41:41.726Z,8.60
2022-09-22T20:44:15.921Z,8.50
2022-09-22T20:49:14.070Z,8.60
2022-09-22T20:51:43.998Z,8.40
2022-09-22T20:54:10.811Z,8.30
2022-09-22T20:56:42.095Z,8.20
2022-09-22T21:11:44.791Z,8.20
2022-09-22T21:14:11.985Z,8.40
2022-09-22T21:16:39.494Z,8.50
2022-09-22T21:21:38.857Z,8.30
2022-09-22T21:24:05.965Z,8.20
2022-09-22T21:31:28.503Z,8.30
2022-09-22T21:36:24.237Z,8.30
2022-09-22T21:38:56.672Z,8.30
2022-09-22T21:41:25.511Z,8.00
2022-09-22T21:43:52.454Z,8.30
2022-09-22T21:46:25.002Z,8.20
2022-09-22T21:48:57.994Z,8.10
2022-09-22T21:51:25.516Z,8.10
2022-09-22T21:53:54.010Z,7.90
2022-09-22T21:56:23.167Z,8.00
2022-09-22T21:58:52.286Z,8.00
2022-09-22T22:01:27.747Z,7.90
2022-09-22T22:03:56.231Z,7.90
2022-09-22T22:06:36.323Z,7.90
2022-09-22T22:09:17.715Z,7.80
2022-09-22T22:11:49.669Z,7.80
2022-09-22T22:14:19.457Z,7.40
2022-09-22T22:16:51.995Z,7.50
2022-09-22T22:19:21.701Z,7.50
2022-09-22T22:21:50.694Z,7.40
2022-09-22T22:24:30.960Z,7.20
2022-09-22T22:26:59.054Z,7.20
2022-09-22T22:29:27.332Z,7.10
2022-09-22T22:34:25.630Z,7.20
2022-09-22T22:54:12.048Z,6.90
2022-09-22T23:04:06.547Z,6.80
2022-09-22T23:06:36.452Z,6.70
2022-09-22T23:09:05.029Z,6.70
2022-09-22T23:11:37.148Z,6.80
2022-09-22T23:14:07.034Z,6.70
2022-09-22T23:16:46.071Z,6.70
2022-09-22T23:19:15.507Z,6.80
2022-09-22T23:24:14.646Z,6.80
2022-09-22T23:39:04.621Z,6.80
2022-09-22T23:41:33.309Z,6.80
